Terminal Aerodrome Forecast
Issued by NWS

Current Version | Previous Version | Graphics & Text | Print | Product List | Glossary On
Versions: 1 2 3 4 5 6 7 8 9 10 11 12 13 14 15
000
FTUS41 KILN 262100 AAB
TAFLUK
TAF AMD
KLUK 262103Z 2621/2718 31010KT P6SM BKN018 OVC025
     FM262300 32008KT P6SM OVC025
     FM270300 34004KT P6SM SCT035 BKN150
     FM271200 34007KT P6SM VCSH BKN025
     FM271700 34010G20KT P6SM VCSH BKN035=

USA.gov is the U.S. government's official web portal to all federal, state and local government web resources and services.